sensor_id;sensor_type;location;lat;lon;timestamp;P1;durP1;ratioP1;P2;durP2;ratioP2
77004;SDS011;67261;53.132;18.006;2023-07-08T00:00:09;5.60;;;2.90;;
77004;SDS011;67261;53.132;18.006;2023-07-08T00:02:58;5.30;;;3.00;;
77004;SDS011;67261;53.132;18.006;2023-07-08T00:05:27;4.90;;;2.40;;
77004;SDS011;67261;53.132;18.006;2023-07-08T00:07:55;6.30;;;2.70;;
77004;SDS011;67261;53.132;18.006;2023-07-08T00:10:25;5.00;;;2.60;;
77004;SDS011;67261;53.132;18.006;2023-07-08T00:12:55;5.20;;;2.50;;
77004;SDS011;67261;53.132;18.006;2023-07-08T00:15:26;5.30;;;3.00;;
77004;SDS011;67261;53.132;18.006;2023-07-08T00:17:55;5.10;;;2.90;;
77004;SDS011;67261;53.132;18.006;2023-07-08T00:22:57;5.80;;;2.90;;
77004;SDS011;67261;53.132;18.006;2023-07-08T00:25:30;5.30;;;2.60;;
77004;SDS011;67261;53.132;18.006;2023-07-08T00:27:58;5.40;;;3.30;;
77004;SDS011;67261;53.132;18.006;2023-07-08T00:30:29;5.80;;;2.70;;
77004;SDS011;67261;53.132;18.006;2023-07-08T00:32:57;6.00;;;2.70;;
77004;SDS011;67261;53.132;18.006;2023-07-08T00:35:30;4.40;;;2.50;;
77004;SDS011;67261;53.132;18.006;2023-07-08T00:41:18;6.00;;;2.20;;
77004;SDS011;67261;53.132;18.006;2023-07-08T00:43:52;4.90;;;2.80;;
77004;SDS011;67261;53.132;18.006;2023-07-08T00:52:13;4.60;;;2.30;;
77004;SDS011;67261;53.132;18.006;2023-07-08T00:54:51;4.50;;;2.20;;
77004;SDS011;67261;53.132;18.006;2023-07-08T00:57:25;5.00;;;2.60;;
77004;SDS011;67261;53.132;18.006;2023-07-08T00:59:59;4.60;;;2.80;;
77004;SDS011;67261;53.132;18.006;2023-07-08T01:02:33;4.20;;;2.40;;
77004;SDS011;67261;53.132;18.006;2023-07-08T01:05:10;4.80;;;2.70;;
77004;SDS011;67261;53.132;18.006;2023-07-08T01:07:41;5.10;;;2.90;;
77004;SDS011;67261;53.132;18.006;2023-07-08T01:10:13;4.70;;;2.70;;
77004;SDS011;67261;53.132;18.006;2023-07-08T01:12:48;5.70;;;2.70;;
77004;SDS011;67261;53.132;18.006;2023-07-08T01:15:19;5.80;;;3.20;;
77004;SDS011;67261;53.132;18.006;2023-07-08T01:17:50;5.30;;;2.90;;
77004;SDS011;67261;53.132;18.006;2023-07-08T01:20:20;4.60;;;2.40;;
77004;SDS011;67261;53.132;18.006;2023-07-08T01:22:48;6.90;;;2.80;;
77004;SDS011;67261;53.132;18.006;2023-07-08T01:25:16;5.40;;;2.90;;
77004;SDS011;67261;53.132;18.006;2023-07-08T01:27:45;5.10;;;2.80;;
77004;SDS011;67261;53.132;18.006;2023-07-08T01:30:15;5.40;;;2.70;;
77004;SDS011;67261;53.132;18.006;2023-07-08T01:32:45;6.20;;;3.60;;
77004;SDS011;67261;53.132;18.006;2023-07-08T01:35:17;6.60;;;3.70;;
77004;SDS011;67261;53.132;18.006;2023-07-08T01:37:49;6.90;;;3.00;;
77004;SDS011;67261;53.132;18.006;2023-07-08T01:40:25;5.30;;;2.60;;
77004;SDS011;67261;53.132;18.006;2023-07-08T01:42:58;5.50;;;3.10;;
77004;SDS011;67261;53.132;18.006;2023-07-08T01:45:28;5.60;;;3.20;;
77004;SDS011;67261;53.132;18.006;2023-07-08T01:48:05;5.40;;;3.40;;
77004;SDS011;67261;53.132;18.006;2023-07-08T01:50:37;5.50;;;2.70;;
77004;SDS011;67261;53.132;18.006;2023-07-08T01:53:14;5.50;;;3.00;;
77004;SDS011;67261;53.132;18.006;2023-07-08T01:55:46;7.80;;;3.20;;
77004;SDS011;67261;53.132;18.006;2023-07-08T01:58:14;5.70;;;3.50;;
77004;SDS011;67261;53.132;18.006;2023-07-08T02:00:42;5.40;;;2.80;;
77004;SDS011;67261;53.132;18.006;2023-07-08T02:03:10;5.50;;;3.10;;
77004;SDS011;67261;53.132;18.006;2023-07-08T02:05:38;6.00;;;3.70;;
77004;SDS011;67261;53.132;18.006;2023-07-08T02:08:05;5.80;;;3.20;;
77004;SDS011;67261;53.132;18.006;2023-07-08T02:10:33;4.90;;;3.00;;
77004;SDS011;67261;53.132;18.006;2023-07-08T02:13:00;6.00;;;3.10;;
77004;SDS011;67261;53.132;18.006;2023-07-08T02:15:27;6.10;;;3.10;;
77004;SDS011;67261;53.132;18.006;2023-07-08T02:17:55;4.40;;;2.90;;
77004;SDS011;67261;53.132;18.006;2023-07-08T02:20:23;5.20;;;3.70;;
77004;SDS011;67261;53.132;18.006;2023-07-08T02:22:50;5.30;;;3.10;;
77004;SDS011;67261;53.132;18.006;2023-07-08T02:25:18;6.10;;;3.50;;
77004;SDS011;67261;53.132;18.006;2023-07-08T02:27:46;6.10;;;3.40;;
77004;SDS011;67261;53.132;18.006;2023-07-08T02:32:40;6.00;;;3.40;;
77004;SDS011;67261;53.132;18.006;2023-07-08T02:35:09;6.40;;;3.40;;
77004;SDS011;67261;53.132;18.006;2023-07-08T02:40:04;5.90;;;3.40;;
77004;SDS011;67261;53.132;18.006;2023-07-08T02:42:33;5.30;;;3.30;;
77004;SDS011;67261;53.132;18.006;2023-07-08T02:45:00;5.40;;;3.10;;
77004;SDS011;67261;53.132;18.006;2023-07-08T02:47:27;5.80;;;3.50;;
77004;SDS011;67261;53.132;18.006;2023-07-08T02:49:55;6.10;;;3.40;;
77004;SDS011;67261;53.132;18.006;2023-07-08T02:52:22;7.50;;;3.60;;
77004;SDS011;67261;53.132;18.006;2023-07-08T02:54:51;5.80;;;3.70;;
77004;SDS011;67261;53.132;18.006;2023-07-08T02:57:18;5.60;;;3.30;;
77004;SDS011;67261;53.132;18.006;2023-07-08T02:59:45;7.10;;;3.90;;
77004;SDS011;67261;53.132;18.006;2023-07-08T03:02:14;6.90;;;3.50;;
77004;SDS011;67261;53.132;18.006;2023-07-08T03:04:42;5.60;;;3.40;;
77004;SDS011;67261;53.132;18.006;2023-07-08T03:07:10;5.90;;;3.30;;
77004;SDS011;67261;53.132;18.006;2023-07-08T03:09:38;5.50;;;3.00;;
77004;SDS011;67261;53.132;18.006;2023-07-08T03:12:07;6.00;;;3.40;;
77004;SDS011;67261;53.132;18.006;2023-07-08T03:14:37;7.10;;;3.80;;
77004;SDS011;67261;53.132;18.006;2023-07-08T03:17:05;6.00;;;3.40;;
77004;SDS011;67261;53.132;18.006;2023-07-08T03:19:34;6.30;;;3.50;;
77004;SDS011;67261;53.132;18.006;2023-07-08T03:22:02;6.90;;;3.60;;
77004;SDS011;67261;53.132;18.006;2023-07-08T03:24:32;6.00;;;3.80;;
77004;SDS011;67261;53.132;18.006;2023-07-08T03:27:02;5.50;;;3.40;;
77004;SDS011;67261;53.132;18.006;2023-07-08T03:29:33;7.00;;;3.90;;
77004;SDS011;67261;53.132;18.006;2023-07-08T03:32:02;6.50;;;3.50;;
77004;SDS011;67261;53.132;18.006;2023-07-08T03:34:31;5.30;;;3.30;;
77004;SDS011;67261;53.132;18.006;2023-07-08T03:36:58;6.60;;;3.30;;
77004;SDS011;67261;53.132;18.006;2023-07-08T03:39:29;6.90;;;3.10;;
77004;SDS011;67261;53.132;18.006;2023-07-08T03:41:59;5.40;;;3.10;;
77004;SDS011;67261;53.132;18.006;2023-07-08T03:44:27;6.50;;;3.20;;
77004;SDS011;67261;53.132;18.006;2023-07-08T03:46:55;6.20;;;3.80;;
77004;SDS011;67261;53.132;18.006;2023-07-08T03:49:23;5.80;;;3.10;;
77004;SDS011;67261;53.132;18.006;2023-07-08T03:51:52;5.50;;;3.20;;
77004;SDS011;67261;53.132;18.006;2023-07-08T03:54:21;7.70;;;3.30;;
77004;SDS011;67261;53.132;18.006;2023-07-08T03:56:54;6.90;;;3.30;;
77004;SDS011;67261;53.132;18.006;2023-07-08T04:01:54;6.00;;;3.50;;
77004;SDS011;67261;53.132;18.006;2023-07-08T04:04:22;5.40;;;2.70;;
77004;SDS011;67261;53.132;18.006;2023-07-08T04:06:49;6.70;;;3.20;;
77004;SDS011;67261;53.132;18.006;2023-07-08T04:09:18;6.70;;;3.10;;
77004;SDS011;67261;53.132;18.006;2023-07-08T04:11:45;6.00;;;3.20;;
77004;SDS011;67261;53.132;18.006;2023-07-08T04:14:14;6.80;;;3.40;;
77004;SDS011;67261;53.132;18.006;2023-07-08T04:16:46;6.30;;;3.20;;
77004;SDS011;67261;53.132;18.006;2023-07-08T04:19:18;5.60;;;3.20;;
77004;SDS011;67261;53.132;18.006;2023-07-08T04:21:47;5.70;;;3.20;;
77004;SDS011;67261;53.132;18.006;2023-07-08T04:24:16;5.50;;;3.40;;
77004;SDS011;67261;53.132;18.006;2023-07-08T04:26:46;5.10;;;3.20;;
77004;SDS011;67261;53.132;18.006;2023-07-08T04:29:17;6.30;;;3.60;;
77004;SDS011;67261;53.132;18.006;2023-07-08T04:31:48;5.90;;;3.00;;
77004;SDS011;67261;53.132;18.006;2023-07-08T04:34:16;6.80;;;3.20;;
77004;SDS011;67261;53.132;18.006;2023-07-08T04:36:45;8.90;;;4.00;;
77004;SDS011;67261;53.132;18.006;2023-07-08T04:39:16;5.50;;;3.40;;
77004;SDS011;67261;53.132;18.006;2023-07-08T04:41:46;5.90;;;3.10;;
77004;SDS011;67261;53.132;18.006;2023-07-08T04:44:19;4.90;;;3.00;;
77004;SDS011;67261;53.132;18.006;2023-07-08T04:46:49;5.80;;;3.60;;
77004;SDS011;67261;53.132;18.006;2023-07-08T04:49:21;5.50;;;3.80;;
77004;SDS011;67261;53.132;18.006;2023-07-08T04:51:50;5.20;;;2.90;;
77004;SDS011;67261;53.132;18.006;2023-07-08T04:54:21;4.50;;;3.20;;
77004;SDS011;67261;53.132;18.006;2023-07-08T04:56:49;4.80;;;3.50;;
77004;SDS011;67261;53.132;18.006;2023-07-08T04:59:18;6.30;;;3.30;;
77004;SDS011;67261;53.132;18.006;2023-07-08T05:01:48;7.40;;;3.80;;
77004;SDS011;67261;53.132;18.006;2023-07-08T05:04:17;6.50;;;3.60;;
77004;SDS011;67261;53.132;18.006;2023-07-08T05:06:47;5.40;;;3.40;;
77004;SDS011;67261;53.132;18.006;2023-07-08T05:09:16;4.90;;;3.20;;
77004;SDS011;67261;53.132;18.006;2023-07-08T05:11:49;5.60;;;3.40;;
77004;SDS011;67261;53.132;18.006;2023-07-08T05:14:17;5.00;;;3.40;;
77004;SDS011;67261;53.132;18.006;2023-07-08T05:16:48;5.40;;;3.30;;
77004;SDS011;67261;53.132;18.006;2023-07-08T05:19:17;6.70;;;3.70;;
77004;SDS011;67261;53.132;18.006;2023-07-08T05:21:45;5.70;;;3.20;;
77004;SDS011;67261;53.132;18.006;2023-07-08T05:24:14;5.30;;;3.30;;
77004;SDS011;67261;53.132;18.006;2023-07-08T05:26:45;5.50;;;3.40;;
77004;SDS011;67261;53.132;18.006;2023-07-08T05:29:12;4.90;;;3.10;;
77004;SDS011;67261;53.132;18.006;2023-07-08T05:31:41;6.30;;;3.50;;
77004;SDS011;67261;53.132;18.006;2023-07-08T05:34:08;4.80;;;3.00;;
77004;SDS011;67261;53.132;18.006;2023-07-08T05:36:35;5.30;;;3.30;;
77004;SDS011;67261;53.132;18.006;2023-07-08T05:39:05;5.90;;;3.50;;
77004;SDS011;67261;53.132;18.006;2023-07-08T05:41:33;6.10;;;3.20;;
77004;SDS011;67261;53.132;18.006;2023-07-08T05:44:00;6.20;;;3.20;;
77004;SDS011;67261;53.132;18.006;2023-07-08T05:46:28;5.20;;;3.10;;
77004;SDS011;67261;53.132;18.006;2023-07-08T05:48:56;6.80;;;3.50;;
77004;SDS011;67261;53.132;18.006;2023-07-08T05:51:25;5.50;;;2.90;;
77004;SDS011;67261;53.132;18.006;2023-07-08T05:53:56;4.80;;;2.80;;
77004;SDS011;67261;53.132;18.006;2023-07-08T05:56:26;6.20;;;3.50;;
77004;SDS011;67261;53.132;18.006;2023-07-08T05:58:54;5.70;;;2.80;;
77004;SDS011;67261;53.132;18.006;2023-07-08T06:01:22;5.90;;;3.00;;
77004;SDS011;67261;53.132;18.006;2023-07-08T06:03:51;6.40;;;3.00;;
77004;SDS011;67261;53.132;18.006;2023-07-08T06:06:19;5.50;;;2.90;;
77004;SDS011;67261;53.132;18.006;2023-07-08T06:08:47;5.70;;;3.20;;
77004;SDS011;67261;53.132;18.006;2023-07-08T06:11:15;5.10;;;3.00;;
77004;SDS011;67261;53.132;18.006;2023-07-08T06:13:43;6.20;;;3.30;;
77004;SDS011;67261;53.132;18.006;2023-07-08T06:16:11;6.30;;;2.70;;
77004;SDS011;67261;53.132;18.006;2023-07-08T06:18:38;5.40;;;2.80;;
77004;SDS011;67261;53.132;18.006;2023-07-08T06:21:06;4.90;;;2.70;;
77004;SDS011;67261;53.132;18.006;2023-07-08T06:23:34;4.30;;;2.50;;
77004;SDS011;67261;53.132;18.006;2023-07-08T06:26:01;5.30;;;2.40;;
77004;SDS011;67261;53.132;18.006;2023-07-08T06:28:33;4.80;;;2.60;;
77004;SDS011;67261;53.132;18.006;2023-07-08T06:31:00;5.70;;;2.30;;
77004;SDS011;67261;53.132;18.006;2023-07-08T06:36:01;5.20;;;2.40;;
77004;SDS011;67261;53.132;18.006;2023-07-08T06:38:29;4.90;;;2.30;;
77004;SDS011;67261;53.132;18.006;2023-07-08T06:41:01;4.10;;;2.40;;
77004;SDS011;67261;53.132;18.006;2023-07-08T06:43:30;5.40;;;2.60;;
77004;SDS011;67261;53.132;18.006;2023-07-08T06:46:17;3.90;;;2.70;;
77004;SDS011;67261;53.132;18.006;2023-07-08T06:48:47;4.60;;;2.10;;
77004;SDS011;67261;53.132;18.006;2023-07-08T06:51:15;4.60;;;1.90;;
77004;SDS011;67261;53.132;18.006;2023-07-08T06:53:44;3.60;;;2.00;;
77004;SDS011;67261;53.132;18.006;2023-07-08T06:56:11;3.90;;;2.20;;
77004;SDS011;67261;53.132;18.006;2023-07-08T06:58:39;5.30;;;2.10;;
77004;SDS011;67261;53.132;18.006;2023-07-08T07:01:07;4.10;;;1.90;;
77004;SDS011;67261;53.132;18.006;2023-07-08T07:03:35;3.70;;;1.80;;
77004;SDS011;67261;53.132;18.006;2023-07-08T07:06:06;3.70;;;1.60;;
77004;SDS011;67261;53.132;18.006;2023-07-08T07:08:36;4.60;;;2.20;;
77004;SDS011;67261;53.132;18.006;2023-07-08T07:11:04;3.70;;;2.00;;
77004;SDS011;67261;53.132;18.006;2023-07-08T07:13:31;3.50;;;1.80;;
77004;SDS011;67261;53.132;18.006;2023-07-08T07:16:02;4.80;;;2.30;;
77004;SDS011;67261;53.132;18.006;2023-07-08T07:18:29;3.40;;;2.20;;
77004;SDS011;67261;53.132;18.006;2023-07-08T07:20:58;3.90;;;2.50;;
77004;SDS011;67261;53.132;18.006;2023-07-08T07:23:26;7.50;;;3.30;;
77004;SDS011;67261;53.132;18.006;2023-07-08T07:25:55;5.60;;;2.40;;
77004;SDS011;67261;53.132;18.006;2023-07-08T07:28:23;4.10;;;2.40;;
77004;SDS011;67261;53.132;18.006;2023-07-08T07:30:57;3.80;;;2.50;;
77004;SDS011;67261;53.132;18.006;2023-07-08T07:33:29;4.00;;;1.90;;
77004;SDS011;67261;53.132;18.006;2023-07-08T07:36:01;5.90;;;2.10;;
77004;SDS011;67261;53.132;18.006;2023-07-08T07:38:29;4.40;;;2.10;;
77004;SDS011;67261;53.132;18.006;2023-07-08T07:41:01;4.00;;;1.90;;
77004;SDS011;67261;53.132;18.006;2023-07-08T07:43:34;5.30;;;1.90;;
77004;SDS011;67261;53.132;18.006;2023-07-08T07:46:04;3.70;;;2.20;;
77004;SDS011;67261;53.132;18.006;2023-07-08T07:48:32;4.60;;;2.50;;
77004;SDS011;67261;53.132;18.006;2023-07-08T07:51:07;4.70;;;2.00;;
77004;SDS011;67261;53.132;18.006;2023-07-08T07:53:37;5.20;;;2.10;;
77004;SDS011;67261;53.132;18.006;2023-07-08T07:56:05;4.80;;;2.10;;
77004;SDS011;67261;53.132;18.006;2023-07-08T07:58:34;5.80;;;2.70;;
77004;SDS011;67261;53.132;18.006;2023-07-08T08:01:01;4.70;;;2.80;;
77004;SDS011;67261;53.132;18.006;2023-07-08T08:03:28;3.90;;;2.50;;
77004;SDS011;67261;53.132;18.006;2023-07-08T08:05:59;4.20;;;2.40;;
77004;SDS011;67261;53.132;18.006;2023-07-08T08:08:27;4.60;;;2.70;;
77004;SDS011;67261;53.132;18.006;2023-07-08T08:10:56;6.80;;;3.20;;
77004;SDS011;67261;53.132;18.006;2023-07-08T08:13:24;4.30;;;2.40;;
77004;SDS011;67261;53.132;18.006;2023-07-08T08:15:57;3.70;;;2.20;;
77004;SDS011;67261;53.132;18.006;2023-07-08T08:18:27;3.60;;;2.20;;
77004;SDS011;67261;53.132;18.006;2023-07-08T08:20:57;4.10;;;1.90;;
77004;SDS011;67261;53.132;18.006;2023-07-08T08:23:27;4.40;;;2.10;;
77004;SDS011;67261;53.132;18.006;2023-07-08T08:25:57;5.50;;;2.70;;
77004;SDS011;67261;53.132;18.006;2023-07-08T08:28:25;3.50;;;2.00;;
77004;SDS011;67261;53.132;18.006;2023-07-08T08:30:53;4.20;;;2.40;;
77004;SDS011;67261;53.132;18.006;2023-07-08T08:33:22;4.70;;;3.30;;
77004;SDS011;67261;53.132;18.006;2023-07-08T08:35:49;4.00;;;2.30;;
77004;SDS011;67261;53.132;18.006;2023-07-08T08:38:17;6.90;;;3.00;;
77004;SDS011;67261;53.132;18.006;2023-07-08T08:40:47;5.10;;;2.30;;
77004;SDS011;67261;53.132;18.006;2023-07-08T08:43:18;7.00;;;2.40;;
77004;SDS011;67261;53.132;18.006;2023-07-08T08:48:25;3.80;;;1.90;;
77004;SDS011;67261;53.132;18.006;2023-07-08T08:51:08;4.20;;;2.00;;
77004;SDS011;67261;53.132;18.006;2023-07-08T08:53:43;3.50;;;1.90;;
77004;SDS011;67261;53.132;18.006;2023-07-08T09:04:54;4.50;;;2.10;;
77004;SDS011;67261;53.132;18.006;2023-07-08T09:07:26;3.90;;;1.90;;
77004;SDS011;67261;53.132;18.006;2023-07-08T09:10:02;4.80;;;2.10;;
77004;SDS011;67261;53.132;18.006;2023-07-08T09:12:50;4.20;;;2.60;;
77004;SDS011;67261;53.132;18.006;2023-07-08T09:17:53;4.70;;;2.30;;
77004;SDS011;67261;53.132;18.006;2023-07-08T09:20:31;4.20;;;2.00;;
77004;SDS011;67261;53.132;18.006;2023-07-08T09:23:11;4.00;;;1.90;;
77004;SDS011;67261;53.132;18.006;2023-07-08T09:26:05;4.20;;;2.10;;
77004;SDS011;67261;53.132;18.006;2023-07-08T09:28:42;4.70;;;1.90;;
77004;SDS011;67261;53.132;18.006;2023-07-08T09:31:25;3.20;;;1.90;;
77004;SDS011;67261;53.132;18.006;2023-07-08T09:37:25;3.70;;;1.80;;
77004;SDS011;67261;53.132;18.006;2023-07-08T09:40:00;3.40;;;1.60;;
77004;SDS011;67261;53.132;18.006;2023-07-08T09:42:34;4.20;;;2.20;;
77004;SDS011;67261;53.132;18.006;2023-07-08T09:45:08;3.40;;;1.70;;
77004;SDS011;67261;53.132;18.006;2023-07-08T09:47:42;3.70;;;1.80;;
77004;SDS011;67261;53.132;18.006;2023-07-08T09:50:22;4.10;;;2.20;;
77004;SDS011;67261;53.132;18.006;2023-07-08T09:52:54;4.20;;;2.40;;
77004;SDS011;67261;53.132;18.006;2023-07-08T09:55:29;4.60;;;2.20;;
77004;SDS011;67261;53.132;18.006;2023-07-08T09:58:00;3.30;;;1.60;;
77004;SDS011;67261;53.132;18.006;2023-07-08T10:00:29;4.70;;;2.00;;
77004;SDS011;67261;53.132;18.006;2023-07-08T10:03:05;5.00;;;1.90;;
77004;SDS011;67261;53.132;18.006;2023-07-08T10:05:45;3.60;;;1.70;;
77004;SDS011;67261;53.132;18.006;2023-07-08T10:08:17;4.40;;;2.30;;
77004;SDS011;67261;53.132;18.006;2023-07-08T10:10:52;5.00;;;2.50;;
77004;SDS011;67261;53.132;18.006;2023-07-08T10:13:49;5.00;;;2.30;;
77004;SDS011;67261;53.132;18.006;2023-07-08T10:18:51;4.50;;;2.10;;
77004;SDS011;67261;53.132;18.006;2023-07-08T10:21:48;3.70;;;2.00;;
77004;SDS011;67261;53.132;18.006;2023-07-08T10:30:21;3.40;;;1.90;;
77004;SDS011;67261;53.132;18.006;2023-07-08T10:33:11;5.00;;;2.10;;
77004;SDS011;67261;53.132;18.006;2023-07-08T10:45:08;5.40;;;2.30;;
77004;SDS011;67261;53.132;18.006;2023-07-08T10:50:22;4.40;;;2.60;;
77004;SDS011;67261;53.132;18.006;2023-07-08T10:53:23;5.30;;;2.50;;
77004;SDS011;67261;53.132;18.006;2023-07-08T10:55:58;4.90;;;2.10;;
77004;SDS011;67261;53.132;18.006;2023-07-08T11:04:24;4.40;;;2.30;;
77004;SDS011;67261;53.132;18.006;2023-07-08T11:07:04;4.20;;;2.40;;
77004;SDS011;67261;53.132;18.006;2023-07-08T11:12:42;4.20;;;2.00;;
77004;SDS011;67261;53.132;18.006;2023-07-08T11:15:18;4.20;;;1.90;;
77004;SDS011;67261;53.132;18.006;2023-07-08T11:20:41;5.20;;;2.10;;
77004;SDS011;67261;53.132;18.006;2023-07-08T11:23:39;4.60;;;2.40;;
77004;SDS011;67261;53.132;18.006;2023-07-08T11:28:42;4.20;;;2.80;;
77004;SDS011;67261;53.132;18.006;2023-07-08T11:31:12;4.20;;;2.20;;
77004;SDS011;67261;53.132;18.006;2023-07-08T11:33:42;6.90;;;2.40;;
77004;SDS011;67261;53.132;18.006;2023-07-08T11:36:12;3.70;;;2.10;;
77004;SDS011;67261;53.132;18.006;2023-07-08T11:38:49;4.30;;;2.00;;
77004;SDS011;67261;53.132;18.006;2023-07-08T11:41:30;5.20;;;2.00;;
77004;SDS011;67261;53.132;18.006;2023-07-08T11:43:59;6.10;;;2.40;;
77004;SDS011;67261;53.132;18.006;2023-07-08T11:46:32;4.80;;;2.00;;
77004;SDS011;67261;53.132;18.006;2023-07-08T11:49:13;4.40;;;2.50;;
77004;SDS011;67261;53.132;18.006;2023-07-08T11:51:43;4.80;;;2.40;;
77004;SDS011;67261;53.132;18.006;2023-07-08T11:54:14;4.10;;;2.20;;
77004;SDS011;67261;53.132;18.006;2023-07-08T11:57:06;4.80;;;2.10;;
77004;SDS011;67261;53.132;18.006;2023-07-08T11:59:37;4.40;;;2.40;;
77004;SDS011;67261;53.132;18.006;2023-07-08T12:02:18;3.60;;;2.20;;
77004;SDS011;67261;53.132;18.006;2023-07-08T12:07:42;4.20;;;2.50;;
77004;SDS011;67261;53.132;18.006;2023-07-08T12:10:37;4.50;;;2.10;;
77004;SDS011;67261;53.132;18.006;2023-07-08T12:13:11;4.30;;;2.30;;
77004;SDS011;67261;53.132;18.006;2023-07-08T12:15:44;4.60;;;2.20;;
77004;SDS011;67261;53.132;18.006;2023-07-08T12:18:14;5.30;;;2.60;;
77004;SDS011;67261;53.132;18.006;2023-07-08T12:20:47;4.40;;;2.30;;
77004;SDS011;67261;53.132;18.006;2023-07-08T12:23:22;4.10;;;2.20;;
77004;SDS011;67261;53.132;18.006;2023-07-08T12:25:53;3.60;;;1.90;;
77004;SDS011;67261;53.132;18.006;2023-07-08T12:28:22;4.30;;;2.20;;
77004;SDS011;67261;53.132;18.006;2023-07-08T12:30:52;4.40;;;2.00;;
77004;SDS011;67261;53.132;18.006;2023-07-08T12:33:24;4.70;;;2.10;;
77004;SDS011;67261;53.132;18.006;2023-07-08T12:36:00;5.10;;;2.90;;
77004;SDS011;67261;53.132;18.006;2023-07-08T12:38:33;4.00;;;2.50;;
77004;SDS011;67261;53.132;18.006;2023-07-08T12:41:08;4.70;;;2.30;;
77004;SDS011;67261;53.132;18.006;2023-07-08T12:43:39;4.50;;;2.20;;
77004;SDS011;67261;53.132;18.006;2023-07-08T12:46:08;4.70;;;3.00;;
77004;SDS011;67261;53.132;18.006;2023-07-08T12:48:38;5.20;;;2.30;;
77004;SDS011;67261;53.132;18.006;2023-07-08T12:51:11;5.00;;;2.30;;
77004;SDS011;67261;53.132;18.006;2023-07-08T12:53:45;4.00;;;2.10;;
77004;SDS011;67261;53.132;18.006;2023-07-08T12:56:15;5.00;;;2.40;;
77004;SDS011;67261;53.132;18.006;2023-07-08T12:58:46;4.00;;;2.00;;
77004;SDS011;67261;53.132;18.006;2023-07-08T13:01:19;5.10;;;2.60;;
77004;SDS011;67261;53.132;18.006;2023-07-08T13:03:54;3.70;;;2.00;;
77004;SDS011;67261;53.132;18.006;2023-07-08T13:06:29;4.60;;;2.40;;
77004;SDS011;67261;53.132;18.006;2023-07-08T13:11:47;3.90;;;2.30;;
77004;SDS011;67261;53.132;18.006;2023-07-08T13:14:28;4.50;;;2.30;;
77004;SDS011;67261;53.132;18.006;2023-07-08T13:16:57;4.10;;;2.40;;
77004;SDS011;67261;53.132;18.006;2023-07-08T13:19:29;4.10;;;2.50;;
77004;SDS011;67261;53.132;18.006;2023-07-08T13:21:57;4.20;;;2.40;;
77004;SDS011;67261;53.132;18.006;2023-07-08T13:24:30;4.70;;;2.60;;
77004;SDS011;67261;53.132;18.006;2023-07-08T13:27:03;4.00;;;2.30;;
77004;SDS011;67261;53.132;18.006;2023-07-08T13:29:36;4.30;;;2.40;;
77004;SDS011;67261;53.132;18.006;2023-07-08T13:32:08;4.70;;;2.70;;
77004;SDS011;67261;53.132;18.006;2023-07-08T13:34:38;4.10;;;2.40;;
77004;SDS011;67261;53.132;18.006;2023-07-08T13:37:09;4.10;;;2.30;;
77004;SDS011;67261;53.132;18.006;2023-07-08T13:39:44;4.10;;;2.60;;
77004;SDS011;67261;53.132;18.006;2023-07-08T13:42:13;4.10;;;2.50;;
77004;SDS011;67261;53.132;18.006;2023-07-08T13:44:42;4.80;;;2.50;;
77004;SDS011;67261;53.132;18.006;2023-07-08T13:47:19;4.70;;;2.40;;
77004;SDS011;67261;53.132;18.006;2023-07-08T13:49:49;3.90;;;2.40;;
77004;SDS011;67261;53.132;18.006;2023-07-08T13:52:23;4.90;;;2.50;;
77004;SDS011;67261;53.132;18.006;2023-07-08T13:54:53;4.90;;;2.80;;
77004;SDS011;67261;53.132;18.006;2023-07-08T13:57:32;4.00;;;2.40;;
77004;SDS011;67261;53.132;18.006;2023-07-08T14:00:02;4.90;;;2.40;;
77004;SDS011;67261;53.132;18.006;2023-07-08T14:02:43;4.80;;;3.20;;
77004;SDS011;67261;53.132;18.006;2023-07-08T14:05:13;3.50;;;2.30;;
77004;SDS011;67261;53.132;18.006;2023-07-08T14:07:47;4.10;;;2.40;;
77004;SDS011;67261;53.132;18.006;2023-07-08T14:10:18;4.10;;;2.50;;
77004;SDS011;67261;53.132;18.006;2023-07-08T14:12:45;4.90;;;3.00;;
77004;SDS011;67261;53.132;18.006;2023-07-08T14:15:13;5.00;;;2.80;;
77004;SDS011;67261;53.132;18.006;2023-07-08T14:17:42;5.60;;;3.20;;
77004;SDS011;67261;53.132;18.006;2023-07-08T14:20:10;4.80;;;2.70;;
77004;SDS011;67261;53.132;18.006;2023-07-08T14:22:45;4.50;;;2.30;;
77004;SDS011;67261;53.132;18.006;2023-07-08T14:25:13;5.20;;;2.60;;
77004;SDS011;67261;53.132;18.006;2023-07-08T14:27:52;4.30;;;3.00;;
77004;SDS011;67261;53.132;18.006;2023-07-08T14:30:20;4.60;;;2.70;;
77004;SDS011;67261;53.132;18.006;2023-07-08T14:32:52;5.70;;;2.70;;
77004;SDS011;67261;53.132;18.006;2023-07-08T14:35:27;6.10;;;2.70;;
77004;SDS011;67261;53.132;18.006;2023-07-08T14:37:58;3.90;;;2.50;;
77004;SDS011;67261;53.132;18.006;2023-07-08T14:40:32;4.50;;;2.60;;
77004;SDS011;67261;53.132;18.006;2023-07-08T14:43:24;4.10;;;2.60;;
77004;SDS011;67261;53.132;18.006;2023-07-08T14:46:02;5.20;;;2.60;;
77004;SDS011;67261;53.132;18.006;2023-07-08T14:48:37;4.00;;;2.40;;
77004;SDS011;67261;53.132;18.006;2023-07-08T14:51:04;4.60;;;2.60;;
77004;SDS011;67261;53.132;18.006;2023-07-08T14:53:33;5.40;;;2.60;;
77004;SDS011;67261;53.132;18.006;2023-07-08T14:56:01;3.90;;;2.30;;
77004;SDS011;67261;53.132;18.006;2023-07-08T14:58:41;4.10;;;2.60;;
77004;SDS011;67261;53.132;18.006;2023-07-08T15:04:14;4.50;;;2.50;;
77004;SDS011;67261;53.132;18.006;2023-07-08T15:06:47;6.90;;;2.40;;
77004;SDS011;67261;53.132;18.006;2023-07-08T15:09:17;5.50;;;2.50;;
77004;SDS011;67261;53.132;18.006;2023-07-08T15:11:45;5.30;;;2.60;;
77004;SDS011;67261;53.132;18.006;2023-07-08T15:14:31;4.00;;;2.00;;
77004;SDS011;67261;53.132;18.006;2023-07-08T15:17:04;3.60;;;2.10;;
77004;SDS011;67261;53.132;18.006;2023-07-08T15:19:46;4.30;;;2.30;;
77004;SDS011;67261;53.132;18.006;2023-07-08T15:22:13;4.60;;;2.20;;
77004;SDS011;67261;53.132;18.006;2023-07-08T15:24:40;4.00;;;2.20;;
77004;SDS011;67261;53.132;18.006;2023-07-08T15:27:10;5.00;;;2.50;;
77004;SDS011;67261;53.132;18.006;2023-07-08T15:29:41;4.30;;;2.60;;
77004;SDS011;67261;53.132;18.006;2023-07-08T15:32:12;5.00;;;2.50;;
77004;SDS011;67261;53.132;18.006;2023-07-08T15:34:45;4.60;;;2.30;;
77004;SDS011;67261;53.132;18.006;2023-07-08T15:37:13;5.90;;;2.60;;
77004;SDS011;67261;53.132;18.006;2023-07-08T15:39:43;4.30;;;2.50;;
77004;SDS011;67261;53.132;18.006;2023-07-08T15:42:11;5.70;;;2.60;;
77004;SDS011;67261;53.132;18.006;2023-07-08T15:44:41;5.70;;;2.50;;
77004;SDS011;67261;53.132;18.006;2023-07-08T15:47:11;5.80;;;2.90;;
77004;SDS011;67261;53.132;18.006;2023-07-08T15:49:39;4.80;;;2.50;;
77004;SDS011;67261;53.132;18.006;2023-07-08T15:52:09;4.10;;;2.40;;
77004;SDS011;67261;53.132;18.006;2023-07-08T15:54:37;4.30;;;2.50;;
77004;SDS011;67261;53.132;18.006;2023-07-08T15:57:05;4.50;;;2.30;;
77004;SDS011;67261;53.132;18.006;2023-07-08T15:59:38;3.90;;;2.50;;
77004;SDS011;67261;53.132;18.006;2023-07-08T16:02:15;4.50;;;2.60;;
77004;SDS011;67261;53.132;18.006;2023-07-08T16:04:51;4.10;;;2.50;;
77004;SDS011;67261;53.132;18.006;2023-07-08T16:07:19;5.00;;;2.60;;
77004;SDS011;67261;53.132;18.006;2023-07-08T16:09:46;4.40;;;2.50;;
77004;SDS011;67261;53.132;18.006;2023-07-08T16:12:16;4.60;;;2.40;;
77004;SDS011;67261;53.132;18.006;2023-07-08T16:14:50;4.90;;;2.50;;
77004;SDS011;67261;53.132;18.006;2023-07-08T16:17:20;4.90;;;2.30;;
77004;SDS011;67261;53.132;18.006;2023-07-08T16:19:48;5.30;;;2.80;;